createdAt,value
2022-10-09T00:04:51.655Z,12.08
2022-10-09T00:09:53.049Z,12.07
2022-10-09T00:14:54.430Z,12.04
2022-10-09T00:19:55.794Z,11.97
2022-10-09T00:24:57.239Z,11.92
2022-10-09T00:29:58.749Z,11.84
2022-10-09T00:35:00.112Z,11.72
2022-10-09T00:40:01.611Z,11.72
2022-10-09T00:45:04.124Z,11.74
2022-10-09T00:50:13.817Z,11.76
2022-10-09T00:55:15.526Z,11.73
2022-10-09T01:00:17.543Z,11.74
2022-10-09T01:05:24.677Z,11.77
2022-10-09T01:10:25.974Z,11.74
2022-10-09T01:15:43.996Z,11.73
2022-10-09T01:20:54.101Z,11.69
2022-10-09T01:26:12.925Z,11.64
2022-10-09T01:31:18.306Z,11.56
2022-10-09T01:36:21.414Z,11.49
2022-10-09T01:41:23.142Z,11.37
2022-10-09T01:46:32.582Z,11.33
2022-10-09T01:51:45.665Z,11.29
2022-10-09T01:56:50.005Z,11.25
2022-10-09T02:01:52.230Z,11.25
2022-10-09T02:06:54.280Z,11.24
2022-10-09T02:12:00.145Z,11.21
2022-10-09T02:17:08.382Z,11.17
2022-10-09T02:22:21.755Z,11.14
2022-10-09T02:27:23.631Z,11.13
2022-10-09T02:32:25.225Z,11.09
2022-10-09T02:37:26.689Z,11.02
2022-10-09T02:42:28.076Z,11.01
2022-10-09T02:47:29.442Z,10.95
2022-10-09T02:52:30.806Z,10.95
2022-10-09T02:57:32.162Z,10.90
2022-10-09T03:02:33.686Z,10.89
2022-10-09T03:07:35.186Z,10.86
2022-10-09T03:12:36.554Z,10.88
2022-10-09T03:17:38.366Z,10.93
2022-10-09T03:22:39.726Z,10.98
2022-10-09T03:27:41.141Z,11.00
2022-10-09T03:32:42.520Z,11.01
2022-10-09T03:37:43.904Z,11.03
2022-10-09T03:42:45.281Z,11.01
2022-10-09T03:47:46.647Z,10.98
2022-10-09T03:52:48.310Z,10.91
2022-10-09T03:57:49.855Z,10.85
2022-10-09T04:02:51.621Z,10.78
2022-10-09T04:07:53.412Z,10.79
2022-10-09T04:12:54.849Z,10.77
2022-10-09T04:17:56.269Z,10.77
2022-10-09T04:22:57.666Z,10.76
2022-10-09T04:27:59.031Z,10.69
2022-10-09T04:33:00.391Z,10.67
2022-10-09T04:38:01.767Z,10.63
2022-10-09T04:43:03.438Z,10.61
2022-10-09T04:48:04.870Z,10.56
2022-10-09T04:53:06.269Z,10.51
2022-10-09T04:58:08.699Z,10.45
2022-10-09T05:03:10.962Z,10.45
2022-10-09T05:08:12.329Z,10.48
2022-10-09T05:13:13.709Z,10.48
2022-10-09T05:18:15.078Z,10.38
2022-10-09T05:23:16.429Z,10.26
2022-10-09T05:28:17.828Z,10.19
2022-10-09T05:33:19.678Z,10.24
2022-10-09T05:38:22.584Z,10.33
2022-10-09T05:43:24.985Z,10.38
2022-10-09T05:48:26.329Z,10.29
2022-10-09T05:53:27.719Z,10.23
2022-10-09T05:58:29.087Z,10.24
2022-10-09T06:03:30.445Z,10.26
2022-10-09T06:08:36.541Z,10.23
2022-10-09T06:13:37.934Z,10.30
2022-10-09T06:18:48.714Z,10.34
2022-10-09T06:23:51.998Z,10.43
2022-10-09T06:28:53.283Z,10.54
2022-10-09T06:33:55.189Z,10.59
2022-10-09T06:38:59.260Z,10.73
2022-10-09T06:44:07.681Z,10.86
2022-10-09T06:49:11.026Z,10.97
2022-10-09T06:54:15.043Z,11.09
2022-10-09T06:59:16.440Z,11.23
2022-10-09T07:04:18.641Z,11.38
2022-10-09T07:09:20.011Z,11.54
2022-10-09T07:14:21.385Z,11.69
2022-10-09T07:19:22.838Z,11.85
2022-10-09T07:24:25.302Z,11.99
2022-10-09T07:29:26.690Z,12.13
2022-10-09T07:34:28.045Z,12.27
2022-10-09T07:39:29.420Z,12.39
2022-10-09T07:44:30.940Z,12.53
2022-10-09T07:49:32.315Z,12.67
2022-10-09T07:54:33.676Z,12.81
2022-10-09T07:59:35.028Z,12.92
2022-10-09T08:04:37.500Z,13.04
2022-10-09T08:09:39.544Z,13.16
2022-10-09T08:14:40.913Z,13.27
2022-10-09T08:19:42.466Z,13.41
2022-10-09T08:24:43.826Z,13.55
2022-10-09T08:29:45.260Z,13.70
2022-10-09T08:34:47.479Z,13.83
2022-10-09T08:39:48.974Z,13.96
2022-10-09T08:44:51.694Z,14.08
2022-10-09T08:50:06.033Z,14.20
2022-10-09T08:55:22.538Z,14.35
2022-10-09T09:00:27.889Z,14.51
2022-10-09T09:05:57.122Z,14.56
2022-10-09T09:11:40.509Z,14.57
2022-10-09T09:16:44.792Z,14.61
2022-10-09T09:21:53.928Z,14.62
2022-10-09T09:27:01.846Z,14.65
2022-10-09T09:32:03.574Z,14.75
2022-10-09T09:37:05.200Z,14.92
2022-10-09T09:42:09.582Z,14.97
2022-10-09T09:47:20.363Z,15.08
2022-10-09T09:52:22.766Z,15.16
2022-10-09T09:57:35.005Z,15.32
2022-10-09T10:02:36.374Z,15.39
2022-10-09T10:07:38.861Z,15.48
2022-10-09T10:12:52.216Z,15.62
2022-10-09T10:18:12.747Z,15.75
2022-10-09T10:23:53.415Z,15.82
2022-10-09T10:29:05.759Z,16.01
2022-10-09T10:34:16.213Z,16.19
2022-10-09T10:39:26.906Z,16.31
2022-10-09T10:44:50.173Z,16.27
2022-10-09T10:49:51.613Z,16.14
2022-10-09T10:55:21.220Z,16.10
2022-10-09T11:00:22.928Z,16.14
2022-10-09T11:05:26.912Z,16.17
2022-10-09T11:10:46.723Z,16.30
2022-10-09T11:16:06.293Z,16.46
2022-10-09T11:21:26.311Z,16.58
2022-10-09T11:26:35.210Z,16.62
2022-10-09T11:31:51.550Z,16.70
2022-10-09T11:36:53.708Z,16.75
2022-10-09T11:41:55.723Z,16.78
2022-10-09T11:47:21.553Z,16.84
2022-10-09T11:52:42.232Z,16.91
2022-10-09T11:57:43.600Z,16.97
2022-10-09T12:02:57.953Z,17.07
2022-10-09T12:08:26.471Z,17.15
2022-10-09T12:13:36.931Z,17.24
2022-10-09T12:18:44.105Z,17.29
2022-10-09T12:23:46.721Z,17.31
2022-10-09T12:28:52.237Z,17.33
2022-10-09T12:34:00.490Z,17.41
2022-10-09T12:39:23.301Z,17.42
2022-10-09T12:44:34.885Z,17.46
2022-10-09T12:49:36.249Z,17.51
2022-10-09T12:54:42.973Z,17.61
2022-10-09T12:59:47.053Z,17.68
2022-10-09T13:10:22.618Z,17.77
2022-10-09T13:15:35.761Z,17.80
2022-10-09T13:20:37.134Z,17.94
2022-10-09T13:25:48.834Z,18.00
2022-10-09T13:30:50.439Z,18.01
2022-10-09T13:35:51.850Z,18.04
2022-10-09T13:40:53.739Z,18.20
2022-10-09T13:45:55.440Z,18.22
2022-10-09T13:50:59.110Z,18.10
2022-10-09T13:56:01.113Z,17.96
2022-10-09T14:01:03.246Z,17.87
2022-10-09T14:06:04.786Z,17.75
2022-10-09T14:11:06.206Z,17.69
2022-10-09T14:16:08.222Z,17.66
2022-10-09T14:21:15.785Z,17.65
2022-10-09T14:26:17.324Z,17.61
2022-10-09T14:31:19.098Z,17.57
2022-10-09T14:36:20.776Z,17.55
2022-10-09T14:41:22.277Z,17.52
2022-10-09T14:46:24.469Z,17.49
2022-10-09T14:51:27.499Z,17.48
2022-10-09T14:56:29.265Z,17.43
2022-10-09T15:01:30.640Z,17.37
2022-10-09T15:06:33.219Z,17.32
2022-10-09T15:11:35.663Z,17.23
2022-10-09T15:16:36.937Z,17.22
2022-10-09T15:21:38.418Z,17.18
2022-10-09T15:26:39.922Z,17.13
2022-10-09T15:31:41.710Z,17.13
2022-10-09T15:36:45.670Z,17.12
2022-10-09T15:41:47.055Z,17.09
2022-10-09T15:46:49.313Z,17.02
2022-10-09T15:51:50.963Z,16.89
2022-10-09T15:56:52.380Z,16.79
2022-10-09T16:01:53.790Z,16.68
2022-10-09T16:06:55.199Z,16.55
2022-10-09T16:11:56.781Z,16.42
2022-10-09T16:17:00.196Z,16.20
2022-10-09T16:22:02.972Z,16.02
2022-10-09T16:27:05.730Z,15.84
2022-10-09T16:32:17.320Z,15.68
2022-10-09T16:37:19.232Z,15.53
2022-10-09T16:42:26.080Z,15.40
2022-10-09T16:47:29.810Z,15.31
2022-10-09T16:52:33.945Z,15.27
2022-10-09T16:57:37.847Z,15.25
2022-10-09T17:02:53.100Z,15.22
2022-10-09T17:07:55.031Z,15.17
2022-10-09T17:13:07.579Z,15.06
2022-10-09T17:18:22.069Z,14.90
2022-10-09T17:23:26.131Z,14.76
2022-10-09T17:28:28.122Z,14.69
2022-10-09T17:33:44.559Z,14.60
2022-10-09T17:38:51.304Z,14.53
2022-10-09T17:44:16.750Z,14.51
2022-10-09T17:49:22.717Z,14.50
2022-10-09T17:54:26.761Z,14.47
2022-10-09T17:59:36.304Z,14.41
2022-10-09T18:04:37.762Z,14.32
2022-10-09T18:09:39.562Z,14.25
2022-10-09T18:14:40.954Z,14.23
2022-10-09T18:19:42.416Z,14.18
2022-10-09T18:24:43.786Z,14.07
2022-10-09T18:29:48.000Z,13.96
2022-10-09T18:34:51.235Z,13.86
2022-10-09T18:39:52.744Z,13.80
2022-10-09T18:44:54.202Z,13.71
2022-10-09T18:49:58.635Z,13.59
2022-10-09T18:55:01.895Z,13.51
2022-10-09T19:00:17.468Z,13.47
2022-10-09T19:06:21.234Z,13.46
2022-10-09T19:10:58.336Z,13.43
2022-10-09T19:16:07.708Z,13.44
2022-10-09T19:21:13.544Z,13.40
2022-10-09T19:26:18.723Z,13.33
2022-10-09T19:31:23.956Z,13.24
2022-10-09T19:36:26.707Z,13.15
2022-10-09T19:41:28.308Z,13.17
2022-10-09T19:46:29.877Z,13.08
2022-10-09T19:51:42.419Z,13.05
2022-10-09T19:56:47.946Z,13.04
2022-10-09T20:01:57.689Z,13.03
2022-10-09T20:07:17.175Z,13.04
2022-10-09T20:12:22.368Z,13.04
2022-10-09T20:17:33.026Z,13.01
2022-10-09T20:22:39.392Z,13.02
2022-10-09T20:27:42.419Z,13.00
2022-10-09T20:32:49.127Z,12.99
2022-10-09T20:37:51.038Z,12.98
2022-10-09T20:42:53.110Z,12.93
2022-10-09T20:47:57.492Z,12.91
2022-10-09T20:52:58.918Z,12.88
2022-10-09T20:58:01.337Z,12.84
2022-10-09T21:03:02.702Z,12.84
2022-10-09T21:08:04.078Z,12.81
2022-10-09T21:13:05.472Z,12.78
2022-10-09T21:18:06.841Z,12.76
2022-10-09T21:23:09.729Z,12.73
2022-10-09T21:28:11.165Z,12.67
2022-10-09T21:33:12.723Z,12.66
2022-10-09T21:38:17.538Z,12.61
2022-10-09T21:43:18.981Z,12.57
2022-10-09T21:48:20.512Z,12.52
2022-10-09T21:53:21.861Z,12.45
2022-10-09T21:58:23.236Z,12.42
2022-10-09T22:03:30.559Z,12.41
2022-10-09T22:08:31.959Z,12.38
2022-10-09T22:13:33.375Z,12.38
2022-10-09T22:18:35.721Z,12.36
2022-10-09T22:23:37.506Z,12.33
2022-10-09T22:28:39.417Z,12.33
2022-10-09T22:33:41.693Z,12.33
2022-10-09T22:38:44.540Z,12.34
2022-10-09T22:43:48.779Z,12.33
2022-10-09T22:48:50.456Z,12.30
2022-10-09T22:53:51.838Z,12.26
2022-10-09T22:58:53.487Z,12.24
2022-10-09T23:03:55.432Z,12.24
2022-10-09T23:08:56.987Z,12.20
2022-10-09T23:13:59.869Z,12.19
2022-10-09T23:19:06.524Z,12.19
2022-10-09T23:24:11.467Z,12.16
2022-10-09T23:29:16.191Z,12.16
2022-10-09T23:34:17.566Z,12.14
2022-10-09T23:39:18.998Z,12.15
2022-10-09T23:44:22.334Z,12.16
2022-10-09T23:49:23.824Z,12.14
2022-10-09T23:54:25.328Z,12.18
2022-10-09T23:59:26.705Z,12.18
